createdAt,value
2023-07-18T00:00:49.149Z,64.25
2023-07-18T00:03:16.806Z,64.13
2023-07-18T00:05:43.531Z,64.54
2023-07-18T00:08:10.438Z,64.48
2023-07-18T00:10:37.852Z,65.32
2023-07-18T00:13:05.266Z,64.90
2023-07-18T00:15:32.629Z,64.67
2023-07-18T00:18:00.396Z,64.88
2023-07-18T00:20:27.320Z,63.87
2023-07-18T00:22:53.926Z,63.92
2023-07-18T00:25:22.155Z,64.92
2023-07-18T00:27:55.056Z,63.68
2023-07-18T00:30:22.892Z,63.95
2023-07-18T00:32:49.579Z,63.58
2023-07-18T00:35:17.519Z,64.39
2023-07-18T00:37:44.764Z,64.29
2023-07-18T00:40:13.129Z,64.06
2023-07-18T00:42:40.794Z,64.03
2023-07-18T00:45:08.623Z,64.45
2023-07-18T00:47:41.833Z,64.24
2023-07-18T00:50:10.490Z,63.56
2023-07-18T00:52:42.262Z,64.17
2023-07-18T00:55:12.489Z,63.81
2023-07-18T00:57:40.747Z,63.77
2023-07-18T01:00:10.465Z,64.00
2023-07-18T01:02:41.302Z,64.18
2023-07-18T01:05:09.435Z,64.25
2023-07-18T01:07:40.050Z,63.29
2023-07-18T01:10:26.901Z,64.19
2023-07-18T01:12:58.100Z,64.55
2023-07-18T01:15:26.641Z,64.41
2023-07-18T01:17:53.607Z,63.53
2023-07-18T01:20:22.858Z,64.32
2023-07-18T01:22:51.975Z,64.06
2023-07-18T01:25:19.271Z,64.61
2023-07-18T01:27:51.378Z,64.88
2023-07-18T01:30:28.408Z,64.56
2023-07-18T01:32:55.840Z,65.37
2023-07-18T01:35:26.353Z,65.05
2023-07-18T01:37:53.992Z,65.13
2023-07-18T01:40:21.923Z,64.85
2023-07-18T01:42:53.705Z,64.59
2023-07-18T01:45:24.228Z,63.79
2023-07-18T01:47:52.407Z,63.95
2023-07-18T01:50:19.933Z,64.85
2023-07-18T01:52:48.278Z,65.07
2023-07-18T01:55:15.987Z,65.61
2023-07-18T01:57:47.254Z,66.13
2023-07-18T02:00:20.465Z,66.32
2023-07-18T02:02:49.895Z,66.43
2023-07-18T02:05:20.026Z,66.25
2023-07-18T02:07:47.938Z,66.74
2023-07-18T02:10:16.120Z,66.39
2023-07-18T02:12:42.620Z,67.56
2023-07-18T02:15:09.977Z,68.01
2023-07-18T02:17:36.650Z,67.38
2023-07-18T02:20:06.861Z,67.07
2023-07-18T02:22:35.226Z,66.16
2023-07-18T02:25:06.163Z,65.96
2023-07-18T02:27:35.050Z,65.82
2023-07-18T02:30:02.279Z,65.87
2023-07-18T02:32:31.646Z,65.45
2023-07-18T02:34:59.009Z,65.63
2023-07-18T02:37:26.399Z,65.99
2023-07-18T02:39:53.045Z,66.36
2023-07-18T02:42:19.775Z,66.20
2023-07-18T02:44:47.429Z,66.90
2023-07-18T02:47:15.155Z,66.28
2023-07-18T02:49:42.203Z,65.67
2023-07-18T02:52:09.351Z,64.95
2023-07-18T02:54:36.100Z,65.80
2023-07-18T02:57:02.633Z,65.68
2023-07-18T02:59:29.258Z,64.83
2023-07-18T03:01:58.027Z,65.33
2023-07-18T03:04:26.845Z,65.08
2023-07-18T03:06:54.097Z,65.73
2023-07-18T03:09:22.991Z,65.40
2023-07-18T03:11:52.953Z,65.38
2023-07-18T03:14:20.105Z,66.26
2023-07-18T03:16:46.880Z,66.37
2023-07-18T03:19:15.595Z,67.08
2023-07-18T03:21:44.548Z,66.45
2023-07-18T03:24:11.362Z,65.77
2023-07-18T03:26:37.946Z,65.96
2023-07-18T03:29:06.326Z,67.13
2023-07-18T03:31:34.130Z,67.07
2023-07-18T03:34:01.771Z,66.90
2023-07-18T03:36:28.591Z,66.65
2023-07-18T03:38:55.180Z,66.37
2023-07-18T03:41:22.041Z,66.96
2023-07-18T03:43:48.933Z,67.27
2023-07-18T03:46:15.441Z,67.31
2023-07-18T03:48:42.166Z,66.00
2023-07-18T03:51:09.513Z,66.09
2023-07-18T03:53:36.539Z,65.81
2023-07-18T03:56:07.197Z,65.14
2023-07-18T03:58:34.853Z,65.32
2023-07-18T04:01:08.352Z,65.72
2023-07-18T04:03:35.456Z,66.19
2023-07-18T04:06:02.553Z,66.40
2023-07-18T04:08:29.950Z,66.05
2023-07-18T04:10:59.013Z,65.04
2023-07-18T04:13:26.427Z,64.79
2023-07-18T04:15:56.369Z,64.47
2023-07-18T04:18:23.633Z,65.25
2023-07-18T04:20:52.910Z,65.10
2023-07-18T04:23:19.565Z,65.73
2023-07-18T04:25:59.545Z,66.11
2023-07-18T04:28:28.241Z,66.83
2023-07-18T04:30:55.121Z,66.49
2023-07-18T04:33:21.829Z,66.65
2023-07-18T04:35:48.353Z,66.81
2023-07-18T04:38:15.109Z,66.92
2023-07-18T04:40:42.384Z,66.74
2023-07-18T04:43:09.788Z,67.31
2023-07-18T04:45:44.155Z,66.66
2023-07-18T04:48:11.669Z,66.98
2023-07-18T04:50:38.431Z,66.76
2023-07-18T04:53:04.934Z,67.00
2023-07-18T04:55:31.456Z,66.74
2023-07-18T04:57:58.154Z,66.88
2023-07-18T05:00:24.859Z,67.14
2023-07-18T05:02:51.449Z,67.69
2023-07-18T05:05:19.140Z,67.68
2023-07-18T05:07:46.097Z,68.47
2023-07-18T05:10:12.619Z,67.60
2023-07-18T05:12:39.449Z,68.03
2023-07-18T05:15:06.520Z,67.96
2023-07-18T05:17:33.124Z,68.10
2023-07-18T05:19:59.814Z,68.45
2023-07-18T05:22:26.365Z,67.88
2023-07-18T05:24:52.806Z,66.58
2023-07-18T05:27:19.248Z,66.42
2023-07-18T05:29:45.649Z,66.07
2023-07-18T05:32:12.113Z,66.65
2023-07-18T05:34:38.895Z,67.42
2023-07-18T05:37:05.695Z,67.08
2023-07-18T05:39:32.468Z,66.88
2023-07-18T05:41:59.382Z,66.69
2023-07-18T05:44:25.802Z,66.42
2023-07-18T05:46:52.258Z,63.29
2023-07-18T05:49:18.737Z,63.56
2023-07-18T05:51:45.303Z,62.87
2023-07-18T05:54:17.113Z,63.67
2023-07-18T05:56:50.063Z,64.05
2023-07-18T05:59:27.532Z,63.17
2023-07-18T06:01:54.299Z,62.66
2023-07-18T06:04:22.898Z,62.46
2023-07-18T06:06:51.073Z,62.05
2023-07-18T06:09:18.209Z,62.30
2023-07-18T06:11:51.493Z,61.98
2023-07-18T06:14:18.001Z,61.97
2023-07-18T06:19:34.754Z,61.61
2023-07-18T06:22:01.518Z,61.62
2023-07-18T06:24:31.118Z,61.45
2023-07-18T06:27:00.728Z,61.75
2023-07-18T06:29:29.861Z,61.34
2023-07-18T06:32:33.755Z,61.40
2023-07-18T06:35:06.215Z,60.06
2023-07-18T06:37:49.586Z,60.77
2023-07-18T06:40:16.896Z,60.14
2023-07-18T06:42:43.841Z,60.53
2023-07-18T06:45:17.237Z,60.08
2023-07-18T06:47:46.462Z,59.59
2023-07-18T06:50:13.297Z,59.17
2023-07-18T06:52:39.999Z,58.32
2023-07-18T06:55:11.715Z,59.03
2023-07-18T06:57:41.917Z,58.40
2023-07-18T07:00:12.786Z,58.58
2023-07-18T07:02:39.302Z,57.11
2023-07-18T07:05:06.056Z,56.54
2023-07-18T07:07:36.061Z,56.95
2023-07-18T07:10:05.076Z,56.98
2023-07-18T07:12:37.198Z,56.28
2023-07-18T07:15:07.425Z,56.27
2023-07-18T07:17:36.902Z,55.89
2023-07-18T07:20:06.201Z,55.69
2023-07-18T07:22:35.766Z,55.68
2023-07-18T07:25:04.397Z,55.62
2023-07-18T07:27:30.997Z,55.01
2023-07-18T07:29:57.559Z,54.73
2023-07-18T07:32:24.072Z,54.61
2023-07-18T07:34:50.771Z,54.15
2023-07-18T07:37:17.431Z,53.71
2023-07-18T07:39:44.515Z,52.04
2023-07-18T07:42:11.048Z,52.10
2023-07-18T07:44:38.019Z,52.31
2023-07-18T07:47:04.725Z,51.41
2023-07-18T07:49:31.305Z,50.68
2023-07-18T07:52:05.050Z,50.76
2023-07-18T07:54:31.874Z,50.80
2023-07-18T07:56:58.387Z,50.62
2023-07-18T07:59:24.881Z,50.31
2023-07-18T08:01:53.624Z,50.92
2023-07-18T08:04:23.582Z,51.17
2023-07-18T08:06:54.590Z,50.98
2023-07-18T08:09:21.665Z,49.34
2023-07-18T08:11:54.993Z,49.67
2023-07-18T08:14:23.457Z,48.13
2023-07-18T08:16:50.400Z,48.77
2023-07-18T08:19:17.241Z,48.27
2023-07-18T08:21:44.170Z,49.80
2023-07-18T08:24:10.774Z,49.22
2023-07-18T08:26:37.512Z,47.43
2023-07-18T08:29:04.229Z,47.84
2023-07-18T08:31:31.151Z,47.88
2023-07-18T08:33:59.350Z,47.10
2023-07-18T08:36:27.045Z,47.12
2023-07-18T08:38:53.762Z,46.45
2023-07-18T08:41:23.445Z,46.39
2023-07-18T08:43:50.383Z,46.52
2023-07-18T08:46:17.930Z,45.79
2023-07-18T08:48:46.047Z,46.50
2023-07-18T08:51:13.607Z,46.97
2023-07-18T08:53:40.917Z,45.70
2023-07-18T08:56:12.002Z,44.74
2023-07-18T08:58:39.104Z,45.63
2023-07-18T09:01:06.474Z,45.67
2023-07-18T09:03:33.259Z,46.49
2023-07-18T09:06:04.862Z,46.40
2023-07-18T09:08:44.018Z,46.40
2023-07-18T09:11:14.523Z,45.97
2023-07-18T09:13:44.755Z,45.96
2023-07-18T09:16:23.687Z,43.83
2023-07-18T09:18:51.408Z,43.43
2023-07-18T09:21:19.691Z,45.12
2023-07-18T09:23:51.095Z,44.58
2023-07-18T09:26:19.263Z,44.60
2023-07-18T09:28:49.594Z,43.26
2023-07-18T09:31:20.666Z,43.13
2023-07-18T09:33:48.581Z,43.25
2023-07-18T09:36:19.741Z,43.37
2023-07-18T09:38:50.160Z,43.89
2023-07-18T09:41:21.634Z,42.29
2023-07-18T09:43:49.555Z,43.22
2023-07-18T09:46:18.059Z,42.92
2023-07-18T09:48:47.974Z,42.81
2023-07-18T09:51:21.681Z,43.34
2023-07-18T09:53:49.639Z,42.37
2023-07-18T09:56:18.157Z,42.24
2023-07-18T09:58:48.132Z,41.79
2023-07-18T10:01:21.149Z,43.77
2023-07-18T10:03:53.879Z,43.40
2023-07-18T10:06:22.091Z,42.06
2023-07-18T10:08:49.402Z,41.76
2023-07-18T10:11:16.120Z,42.00
2023-07-18T10:14:03.754Z,41.12
2023-07-18T10:16:32.446Z,40.96
2023-07-18T10:18:59.084Z,42.34
2023-07-18T10:21:33.631Z,41.98
2023-07-18T10:24:22.326Z,41.37
2023-07-18T10:26:51.894Z,42.08
2023-07-18T10:29:18.832Z,41.20
2023-07-18T10:31:46.323Z,41.83
2023-07-18T10:34:17.629Z,42.94
2023-07-18T10:36:59.173Z,42.13
2023-07-18T10:39:51.216Z,41.20
2023-07-18T10:42:21.807Z,41.48
2023-07-18T10:44:49.482Z,41.04
2023-07-18T10:47:17.376Z,41.12
2023-07-18T10:49:48.501Z,41.85
2023-07-18T10:52:16.449Z,41.75
2023-07-18T10:54:51.874Z,42.12
2023-07-18T10:57:33.984Z,41.87
2023-07-18T11:00:01.759Z,41.74
2023-07-18T11:02:29.383Z,40.89
2023-07-18T11:04:55.934Z,41.11
2023-07-18T11:07:34.355Z,39.72
2023-07-18T11:10:01.788Z,40.09
2023-07-18T11:12:28.241Z,38.71
2023-07-18T11:14:56.710Z,39.40
2023-07-18T11:17:24.873Z,39.55
2023-07-18T11:19:51.362Z,40.26
2023-07-18T11:22:18.309Z,40.57
2023-07-18T11:24:46.452Z,39.78
2023-07-18T11:27:18.902Z,39.94
2023-07-18T11:29:59.065Z,38.75
2023-07-18T11:32:41.487Z,38.77
2023-07-18T11:35:10.115Z,38.24
2023-07-18T11:37:42.384Z,38.81
2023-07-18T11:40:10.604Z,38.76
2023-07-18T11:42:54.602Z,39.80
2023-07-18T11:45:22.847Z,38.49
2023-07-18T11:47:52.130Z,39.04
2023-07-18T11:50:19.957Z,38.35
2023-07-18T11:52:53.670Z,38.20
2023-07-18T11:55:22.920Z,39.34
2023-07-18T11:57:50.484Z,37.65
2023-07-18T12:00:18.500Z,37.37
2023-07-18T12:02:47.172Z,37.58
2023-07-18T12:05:15.290Z,38.91
2023-07-18T12:07:45.589Z,37.75
2023-07-18T12:10:12.975Z,37.37
2023-07-18T12:12:43.185Z,37.34
2023-07-18T12:15:12.948Z,37.00
2023-07-18T12:17:39.698Z,36.64
2023-07-18T12:20:10.217Z,38.69
2023-07-18T12:22:38.701Z,38.22
2023-07-18T12:25:05.784Z,37.22
2023-07-18T12:27:32.351Z,35.09
2023-07-18T12:29:58.797Z,36.13
2023-07-18T12:32:29.137Z,35.39
2023-07-18T12:34:57.900Z,34.27
2023-07-18T12:37:24.550Z,35.04
2023-07-18T12:39:51.023Z,35.82
2023-07-18T12:42:17.563Z,34.37
2023-07-18T12:44:45.790Z,35.12
2023-07-18T12:47:13.112Z,34.87
2023-07-18T12:52:09.833Z,34.19
2023-07-18T12:54:36.317Z,34.16
2023-07-18T12:57:03.121Z,35.16
2023-07-18T12:59:29.692Z,34.63
2023-07-18T13:01:57.000Z,33.96
2023-07-18T13:04:24.585Z,35.32
2023-07-18T13:06:51.719Z,36.25
2023-07-18T13:09:18.190Z,34.33
2023-07-18T13:11:45.730Z,35.77
2023-07-18T13:14:14.644Z,33.65
2023-07-18T13:16:41.156Z,34.01
2023-07-18T13:19:07.629Z,32.82
2023-07-18T13:21:34.127Z,34.44
2023-07-18T13:24:00.567Z,33.45
2023-07-18T13:26:27.198Z,34.46
2023-07-18T13:28:53.728Z,32.54
2023-07-18T13:31:20.401Z,32.93
2023-07-18T13:33:49.197Z,34.72
2023-07-18T13:36:15.828Z,34.01
2023-07-18T13:38:42.306Z,34.11
2023-07-18T13:41:12.029Z,32.22
2023-07-18T13:43:40.488Z,31.97
2023-07-18T13:46:07.507Z,31.63
2023-07-18T13:48:34.626Z,31.93
2023-07-18T13:51:01.705Z,32.24
2023-07-18T13:53:28.204Z,32.69
2023-07-18T13:55:56.161Z,32.51
2023-07-18T13:58:23.346Z,31.84
2023-07-18T14:00:50.023Z,31.16
2023-07-18T14:03:33.257Z,31.66
2023-07-18T14:06:02.198Z,32.49
2023-07-18T14:08:30.539Z,30.70
2023-07-18T14:10:57.379Z,30.58
2023-07-18T14:13:23.883Z,31.10
2023-07-18T14:15:50.500Z,31.37
2023-07-18T14:18:17.021Z,30.97
2023-07-18T14:20:43.465Z,31.68
2023-07-18T14:23:09.966Z,30.66
2023-07-18T14:25:36.491Z,30.84
2023-07-18T14:28:03.001Z,30.64
2023-07-18T14:30:29.766Z,32.38
2023-07-18T14:32:56.197Z,31.31
2023-07-18T14:35:23.083Z,32.27
2023-07-18T14:37:51.541Z,31.05
2023-07-18T14:40:18.245Z,30.77
2023-07-18T14:42:45.148Z,30.59
2023-07-18T14:45:11.735Z,31.37
2023-07-18T14:47:38.180Z,32.00
2023-07-18T14:50:05.052Z,31.20
2023-07-18T14:52:31.778Z,31.11
2023-07-18T14:54:58.520Z,30.14
2023-07-18T14:57:26.618Z,31.58
2023-07-18T14:59:54.300Z,29.18
2023-07-18T15:02:21.549Z,29.66
2023-07-18T15:04:48.310Z,29.07
2023-07-18T15:07:14.914Z,30.19
2023-07-18T15:09:41.301Z,30.70
2023-07-18T15:12:08.130Z,30.00
2023-07-18T15:14:37.418Z,29.69
2023-07-18T15:17:04.969Z,29.85
2023-07-18T15:19:32.853Z,29.74
2023-07-18T15:22:00.422Z,28.63
2023-07-18T15:24:26.946Z,29.19
2023-07-18T15:26:53.424Z,29.57
2023-07-18T15:29:19.952Z,28.97
2023-07-18T15:31:46.479Z,28.35
2023-07-18T15:34:13.044Z,29.66
2023-07-18T15:36:39.667Z,28.58
2023-07-18T15:39:06.222Z,28.60
2023-07-18T15:41:32.728Z,28.27
2023-07-18T15:43:59.154Z,27.62
2023-07-18T15:46:25.928Z,28.95
2023-07-18T15:48:52.510Z,27.94
2023-07-18T15:51:18.947Z,26.90
2023-07-18T15:53:45.414Z,27.42
2023-07-18T15:56:15.362Z,26.88
2023-07-18T15:58:42.270Z,27.44
2023-07-18T16:01:08.804Z,28.87
2023-07-18T16:03:35.287Z,27.21
2023-07-18T16:06:01.855Z,27.67
2023-07-18T16:08:28.276Z,27.94
2023-07-18T16:10:55.100Z,28.50
2023-07-18T16:13:21.577Z,28.50
2023-07-18T16:15:48.545Z,28.88
2023-07-18T16:18:15.140Z,28.40
2023-07-18T16:20:41.619Z,27.84
2023-07-18T16:23:08.174Z,27.46
2023-07-18T16:25:34.640Z,27.41
2023-07-18T16:28:01.075Z,27.50
2023-07-18T16:30:27.489Z,27.28
2023-07-18T16:32:55.069Z,27.17
2023-07-18T16:35:22.102Z,27.79
2023-07-18T16:37:48.591Z,26.46
2023-07-18T16:40:15.101Z,28.30
2023-07-18T16:42:41.765Z,27.92
2023-07-18T16:45:09.024Z,28.79
2023-07-18T16:47:35.542Z,29.55
2023-07-18T16:50:01.958Z,29.22
2023-07-18T16:52:28.521Z,28.78
2023-07-18T16:54:54.913Z,30.09
2023-07-18T16:57:24.712Z,30.70
2023-07-18T16:59:51.529Z,30.20
2023-07-18T17:02:17.929Z,30.96
2023-07-18T17:04:44.433Z,30.97
2023-07-18T17:07:11.008Z,30.52
2023-07-18T17:09:37.451Z,30.97
2023-07-18T17:12:04.180Z,31.29
2023-07-18T17:14:30.666Z,31.61
2023-07-18T17:16:57.118Z,31.50
2023-07-18T17:19:23.586Z,32.58
2023-07-18T17:21:50.013Z,32.39
2023-07-18T17:24:16.401Z,32.84
2023-07-18T17:26:43.307Z,33.69
2023-07-18T17:29:09.723Z,33.46
2023-07-18T17:31:36.122Z,33.25
2023-07-18T17:34:03.453Z,33.54
2023-07-18T17:36:30.250Z,32.37
2023-07-18T17:38:56.692Z,33.64
2023-07-18T17:41:23.714Z,33.63
2023-07-18T17:43:50.098Z,34.26
2023-07-18T17:46:16.747Z,33.29
2023-07-18T17:48:43.334Z,33.17
2023-07-18T17:51:09.746Z,33.97
2023-07-18T17:53:38.905Z,33.80
2023-07-18T17:56:06.024Z,33.38
2023-07-18T17:58:32.509Z,33.53
2023-07-18T18:00:59.087Z,33.16
2023-07-18T18:03:25.698Z,34.24
2023-07-18T18:05:52.903Z,34.40
2023-07-18T18:08:19.559Z,33.94
2023-07-18T18:10:47.512Z,34.70
2023-07-18T18:13:14.841Z,34.45
2023-07-18T18:15:56.407Z,34.95
2023-07-18T18:18:31.188Z,35.10
2023-07-18T18:20:58.487Z,35.16
2023-07-18T18:23:37.469Z,35.56
2023-07-18T18:26:06.987Z,35.96
2023-07-18T18:28:33.598Z,35.84
2023-07-18T18:31:00.097Z,35.21
2023-07-18T18:33:26.613Z,35.12
2023-07-18T18:35:53.735Z,35.21
2023-07-18T18:38:20.158Z,35.38
2023-07-18T18:40:46.587Z,35.99
2023-07-18T18:43:13.065Z,36.27
2023-07-18T18:45:39.503Z,36.64
2023-07-18T18:48:05.973Z,36.64
2023-07-18T18:50:32.476Z,36.96
2023-07-18T18:52:58.857Z,37.42
2023-07-18T18:55:28.143Z,37.55
2023-07-18T18:57:55.756Z,38.14
2023-07-18T19:00:22.838Z,38.11
2023-07-18T19:02:49.405Z,38.38
2023-07-18T19:05:15.837Z,39.31
2023-07-18T19:07:42.256Z,38.72
2023-07-18T19:10:10.315Z,39.14
2023-07-18T19:12:36.777Z,39.87
2023-07-18T19:15:03.615Z,39.91
2023-07-18T19:17:30.252Z,40.11
2023-07-18T19:19:56.858Z,39.51
2023-07-18T19:22:23.400Z,40.03
2023-07-18T19:24:50.126Z,40.22
2023-07-18T19:27:16.691Z,40.55
2023-07-18T19:29:43.612Z,40.73
2023-07-18T19:32:11.185Z,40.98
2023-07-18T19:34:44.864Z,41.05
2023-07-18T19:37:11.383Z,41.39
2023-07-18T19:39:38.301Z,42.03
2023-07-18T19:42:06.025Z,42.17
2023-07-18T19:44:33.041Z,42.88
2023-07-18T19:46:59.698Z,42.66
2023-07-18T19:49:26.607Z,42.39
2023-07-18T19:51:54.578Z,42.49
2023-07-18T19:54:21.054Z,42.68
2023-07-18T19:56:47.907Z,42.99
2023-07-18T19:59:14.699Z,42.92
2023-07-18T20:01:41.268Z,43.02
2023-07-18T20:04:07.986Z,44.18
2023-07-18T20:06:34.528Z,43.96
2023-07-18T20:09:01.189Z,44.13
2023-07-18T20:11:30.483Z,44.33
2023-07-18T20:13:58.605Z,44.18
2023-07-18T20:16:25.680Z,44.06
2023-07-18T20:18:57.033Z,44.83
2023-07-18T20:21:27.215Z,44.99
2023-07-18T20:23:53.717Z,45.23
2023-07-18T20:26:20.255Z,45.16
2023-07-18T20:28:46.737Z,45.57
2023-07-18T20:31:13.341Z,45.72
2023-07-18T20:33:41.778Z,45.61
2023-07-18T20:36:09.794Z,45.56
2023-07-18T20:38:36.260Z,45.32
2023-07-18T20:41:02.982Z,45.35
2023-07-18T20:43:29.636Z,45.48
2023-07-18T20:45:59.899Z,45.13
2023-07-18T20:48:28.139Z,45.08
2023-07-18T20:50:55.481Z,45.94
2023-07-18T20:53:22.561Z,46.01
2023-07-18T20:55:49.188Z,46.26
2023-07-18T20:58:15.667Z,45.83
2023-07-18T21:00:42.185Z,45.71
2023-07-18T21:03:08.778Z,45.87
2023-07-18T21:05:35.231Z,45.78
2023-07-18T21:08:02.463Z,46.16
2023-07-18T21:10:28.886Z,46.92
2023-07-18T21:12:55.299Z,47.02
2023-07-18T21:15:22.265Z,47.45
2023-07-18T21:17:48.786Z,47.32
2023-07-18T21:20:15.441Z,47.60
2023-07-18T21:22:45.097Z,47.83
2023-07-18T21:25:12.237Z,47.70
2023-07-18T21:27:38.770Z,47.16
2023-07-18T21:30:08.437Z,48.30
2023-07-18T21:32:35.746Z,49.24
2023-07-18T21:35:03.071Z,49.82
2023-07-18T21:37:30.095Z,50.22
2023-07-18T21:39:56.516Z,50.14
2023-07-18T21:42:22.965Z,49.51
2023-07-18T21:44:49.369Z,49.52
2023-07-18T21:47:15.738Z,49.69
2023-07-18T21:49:42.132Z,49.82
2023-07-18T21:52:08.549Z,49.79
2023-07-18T21:54:34.977Z,48.93
2023-07-18T21:57:01.414Z,48.92
2023-07-18T21:59:27.888Z,48.68
2023-07-18T22:01:54.315Z,49.37
2023-07-18T22:04:20.672Z,49.46
2023-07-18T22:06:47.115Z,50.14
2023-07-18T22:09:13.595Z,50.11
2023-07-18T22:11:40.101Z,51.11
2023-07-18T22:14:06.547Z,51.07
2023-07-18T22:16:33.051Z,51.05
2023-07-18T22:18:59.461Z,51.44
2023-07-18T22:21:25.924Z,51.45
2023-07-18T22:23:52.294Z,52.01
2023-07-18T22:26:18.690Z,53.28
2023-07-18T22:28:45.623Z,53.35
2023-07-18T22:31:12.587Z,52.26
2023-07-18T22:33:39.091Z,52.04
2023-07-18T22:36:05.765Z,51.43
2023-07-18T22:38:32.199Z,51.44
2023-07-18T22:40:59.939Z,51.26
2023-07-18T22:43:26.403Z,51.99
2023-07-18T22:45:52.883Z,51.69
2023-07-18T22:48:22.574Z,51.74
2023-07-18T22:50:52.020Z,52.00
2023-07-18T22:53:19.341Z,51.79
2023-07-18T22:55:49.105Z,52.09
2023-07-18T22:58:16.017Z,51.94
2023-07-18T23:00:43.266Z,52.12
2023-07-18T23:03:10.016Z,53.22
2023-07-18T23:05:37.692Z,53.31
2023-07-18T23:08:05.523Z,51.90
2023-07-18T23:10:32.798Z,52.38
2023-07-18T23:12:59.680Z,53.98
2023-07-18T23:15:26.608Z,53.78
2023-07-18T23:17:53.070Z,53.72
2023-07-18T23:20:19.799Z,53.04
2023-07-18T23:22:46.339Z,54.09
2023-07-18T23:25:13.379Z,54.73
2023-07-18T23:27:40.052Z,55.06
2023-07-18T23:30:07.349Z,55.04
2023-07-18T23:32:34.024Z,55.00
2023-07-18T23:35:00.686Z,55.54
2023-07-18T23:37:27.126Z,55.63
2023-07-18T23:39:53.751Z,55.40
2023-07-18T23:42:20.288Z,54.53
2023-07-18T23:44:46.809Z,55.34
2023-07-18T23:47:13.235Z,56.63
2023-07-18T23:49:39.712Z,56.95
2023-07-18T23:52:06.444Z,57.51
2023-07-18T23:54:32.983Z,56.20
2023-07-18T23:56:59.481Z,55.26
2023-07-18T23:59:25.954Z,54.57
